Time;durP1;ratioP1;P1;durP2;ratioP2;P2;SDS_P1;SDS_P2;PMS_P1;PMS_P2;Temp;Humidity;BMP_temperature;BMP_pressure;BME280_temperature;BME280_humidity;BME280_pressure;Samples;Min_cycle;Max_cycle;Signal;HPM_P1;HPM_P2
2022/07/26 00:01:30;;;;;;;7.32;1.92;;;19.80;99.90;;;;;;5012104;28;20209;-79
2022/07/26 00:03:57;;;;;;;4.63;2.08;;;19.80;99.90;;;;;;5013834;28;20609;-77
2022/07/26 00:06:25;;;;;;;6.30;2.38;;;19.70;99.90;;;;;;5015006;28;20223;-77
2022/07/26 00:08:52;;;;;;;5.30;2.15;;;19.70;99.90;;;;;;5014847;28;20266;-76
2022/07/26 00:11:22;;;;;;;6.88;2.42;;;19.70;99.90;;;;;;5008945;28;20226;-79
2022/07/26 00:13:50;;;;;;;5.47;2.10;;;19.60;99.90;;;;;;5010028;28;20241;-77
2022/07/26 00:16:16;;;;;;;6.30;1.98;;;19.60;99.90;;;;;;5011089;28;20235;-76
2022/07/26 00:18:43;;;;;;;6.90;2.45;;;19.50;99.90;;;;;;5011799;28;20424;-78
2022/07/26 00:21:11;;;;;;;7.18;2.00;;;19.50;99.90;;;;;;5010821;28;20200;-77
2022/07/26 00:23:37;;;;;;;5.07;1.98;;;19.40;99.90;;;;;;5012818;28;20207;-76
2022/07/26 00:26:04;;;;;;;5.50;1.80;;;19.40;99.90;;;;;;5014155;28;20234;-77
2022/07/26 00:28:32;;;;;;;5.93;1.83;;;19.40;99.90;;;;;;5015368;28;20196;-78
2022/07/26 00:30:59;;;;;;;6.53;1.85;;;19.30;99.90;;;;;;5015752;28;20203;-78
2022/07/26 00:33:26;;;;;;;5.20;2.03;;;19.30;99.90;;;;;;5015040;28;20537;-76
2022/07/26 00:35:53;;;;;;;6.35;1.85;;;19.30;99.90;;;;;;5014811;28;20715;-77
2022/07/26 00:38:20;;;;;;;4.30;1.92;;;19.30;99.90;;;;;;5014989;28;20205;-77
2022/07/26 00:40:47;;;;;;;4.75;1.80;;;19.30;99.90;;;;;;5014573;28;20297;-78
2022/07/26 00:43:13;;;;;;;9.43;2.03;;;19.20;99.90;;;;;;5014359;28;20219;-77
2022/07/26 00:45:42;;;;;;;8.13;2.15;;;19.20;99.90;;;;;;5015246;28;20278;-78
2022/07/26 00:48:09;;;;;;;6.13;2.03;;;19.30;99.90;;;;;;5013283;28;20207;-76
2022/07/26 00:50:36;;;;;;;5.65;2.03;;;19.20;99.90;;;;;;5015757;28;20204;-77
2022/07/26 00:53:03;;;;;;;7.93;1.95;;;19.20;99.90;;;;;;5014472;28;20588;-76
2022/07/26 00:55:30;;;;;;;7.45;2.10;;;19.20;99.90;;;;;;5014126;28;20199;-77
2022/07/26 00:57:59;;;;;;;6.47;2.28;;;19.20;99.90;;;;;;5015102;28;20200;-78
2022/07/26 01:00:26;;;;;;;5.93;2.00;;;19.20;99.90;;;;;;5014619;28;20195;-77
2022/07/26 01:02:55;;;;;;;7.82;2.17;;;19.20;99.90;;;;;;5014345;28;20194;-76
2022/07/26 01:05:23;;;;;;;9.05;2.45;;;19.10;99.90;;;;;;5009462;28;20208;-77
2022/07/26 01:07:50;;;;;;;6.05;1.77;;;19.10;99.90;;;;;;5014480;28;20219;-77
2022/07/26 01:10:17;;;;;;;8.05;2.25;;;19.10;99.90;;;;;;5013453;28;20290;-77
2022/07/26 01:12:44;;;;;;;7.45;1.83;;;19.00;99.90;;;;;;5014628;28;20210;-76
2022/07/26 01:15:14;;;;;;;7.97;2.72;;;19.00;99.90;;;;;;5012280;28;20227;-77
2022/07/26 01:17:41;;;;;;;9.55;1.77;;;19.00;99.90;;;;;;5014170;28;20249;-76
2022/07/26 01:20:12;;;;;;;10.90;2.42;;;19.00;99.90;;;;;;5014203;28;20211;-78
2022/07/26 01:22:40;;;;;;;6.60;1.90;;;18.90;99.90;;;;;;5014277;28;20195;-78
2022/07/26 01:25:08;;;;;;;5.65;2.03;;;18.90;99.90;;;;;;5014392;28;20211;-77
2022/07/26 01:27:38;;;;;;;3.97;1.80;;;18.80;99.90;;;;;;5014096;28;20231;-77
2022/07/26 01:30:06;;;;;;;7.22;1.60;;;18.80;99.90;;;;;;5013901;28;20207;-78
2022/07/26 01:32:33;;;;;;;4.65;1.85;;;18.70;99.90;;;;;;5014440;28;20199;-77
2022/07/26 01:35:00;;;;;;;2.67;1.55;;;18.70;99.90;;;;;;5013053;28;20195;-77
2022/07/26 01:37:27;;;;;;;5.32;1.80;;;18.70;99.90;;;;;;5013588;28;20534;-78
2022/07/26 01:39:55;;;;;;;6.15;2.53;;;18.70;99.90;;;;;;5013375;28;20223;-77
2022/07/26 01:42:22;;;;;;;6.78;1.95;;;18.70;99.90;;;;;;5013244;28;20902;-77
2022/07/26 01:44:49;;;;;;;7.32;1.88;;;18.70;99.90;;;;;;5013518;28;20290;-78
2022/07/26 01:47:16;;;;;;;5.18;1.95;;;18.70;99.90;;;;;;5013843;28;20227;-77
2022/07/26 01:49:42;;;;;;;3.78;1.73;;;18.70;99.90;;;;;;5012362;28;20765;-77
2022/07/26 01:52:09;;;;;;;7.05;1.80;;;18.60;99.90;;;;;;5013969;28;20514;-77
2022/07/26 01:54:36;;;;;;;6.13;1.60;;;18.60;99.90;;;;;;5013863;28;20206;-77
2022/07/26 01:57:05;;;;;;;7.53;2.22;;;18.60;99.90;;;;;;5012639;28;20199;-77
2022/07/26 01:59:31;;;;;;;5.43;1.85;;;18.50;99.90;;;;;;4995645;28;20208;-77
2022/07/26 02:01:58;;;;;;;6.35;1.70;;;18.50;99.90;;;;;;5013391;28;20208;-77
2022/07/26 02:07:09;;;;;;;5.07;1.80;;;18.40;99.90;;;;;;5013712;28;20508;-78
2022/07/26 02:09:36;;;;;;;6.55;2.13;;;18.40;99.90;;;;;;5013043;28;20213;-78
2022/07/26 02:12:05;;;;;;;5.10;1.85;;;18.40;99.90;;;;;;5012810;28;20192;-78
2022/07/26 02:14:31;;;;;;;5.53;2.17;;;18.40;99.90;;;;;;5012756;28;20706;-79
2022/07/26 02:16:59;;;;;;;7.40;2.70;;;18.40;99.90;;;;;;5012325;28;20203;-78
2022/07/26 02:19:26;;;;;;;5.93;2.13;;;18.40;99.90;;;;;;5014738;28;20222;-78
2022/07/26 02:21:53;;;;;;;7.03;2.35;;;18.40;99.90;;;;;;5013335;28;20293;-79
2022/07/26 02:24:20;;;;;;;7.63;2.10;;;18.40;99.90;;;;;;5013111;28;20199;-81
2022/07/26 02:26:47;;;;;;;4.38;1.90;;;18.30;99.90;;;;;;5013468;28;20265;-79
2022/07/26 02:29:15;;;;;;;6.47;1.80;;;18.30;99.90;;;;;;5012705;28;20478;-79
2022/07/26 02:31:42;;;;;;;4.60;2.65;;;18.30;99.90;;;;;;5012516;28;20204;-79
2022/07/26 02:34:09;;;;;;;5.00;2.08;;;18.30;99.90;;;;;;5011962;28;20835;-78
2022/07/26 02:36:35;;;;;;;5.32;1.77;;;18.30;99.90;;;;;;5014155;28;20290;-80
2022/07/26 02:39:03;;;;;;;5.20;2.45;;;18.30;99.90;;;;;;5012544;28;20520;-81
2022/07/26 02:41:30;;;;;;;5.80;2.38;;;18.40;99.90;;;;;;5013552;28;20205;-80
2022/07/26 02:43:57;;;;;;;5.28;2.40;;;18.50;99.90;;;;;;5012205;28;20202;-80
2022/07/26 02:46:25;;;;;;;6.78;2.30;;;18.50;99.90;;;;;;5012122;28;20205;-79
2022/07/26 02:48:52;;;;;;;8.88;2.47;;;18.40;99.90;;;;;;5019945;23;20250;-80
2022/07/26 02:51:18;;;;;;;6.85;2.60;;;18.40;99.90;;;;;;5012068;28;20203;-80
2022/07/26 02:53:45;;;;;;;5.05;2.65;;;18.30;99.90;;;;;;5012193;28;20206;-80
2022/07/26 02:56:12;;;;;;;5.00;2.72;;;18.30;99.90;;;;;;5012803;28;20206;-80
2022/07/26 02:58:39;;;;;;;9.77;2.75;;;18.20;99.90;;;;;;5011645;28;20254;-79
2022/07/26 03:01:06;;;;;;;6.60;2.60;;;18.30;99.90;;;;;;5011798;28;20193;-78
2022/07/26 03:03:34;;;;;;;7.15;2.35;;;18.20;99.90;;;;;;5012018;28;20246;-78
2022/07/26 03:06:01;;;;;;;5.70;2.20;;;18.20;99.90;;;;;;5012645;28;20199;-80
2022/07/26 03:08:28;;;;;;;6.90;2.30;;;18.20;99.90;;;;;;5011513;28;20533;-79
2022/07/26 03:10:55;;;;;;;4.95;2.03;;;18.20;99.90;;;;;;5012453;28;20203;-80
2022/07/26 03:13:22;;;;;;;8.43;2.30;;;18.20;99.90;;;;;;5012326;28;20432;-79
2022/07/26 03:15:49;;;;;;;9.30;2.38;;;18.20;99.90;;;;;;5011494;28;20203;-77
2022/07/26 03:18:15;;;;;;;7.88;2.25;;;18.20;99.90;;;;;;5012274;28;20191;-79
2022/07/26 03:20:44;;;;;;;7.53;2.28;;;18.20;99.90;;;;;;5012166;28;20188;-79
2022/07/26 03:23:11;;;;;;;7.18;1.90;;;18.20;99.90;;;;;;5011821;28;20484;-82
2022/07/26 03:25:37;;;;;;;5.05;1.88;;;18.20;99.90;;;;;;5012149;28;20196;-79
2022/07/26 03:28:05;;;;;;;7.30;2.15;;;18.20;99.90;;;;;;5010345;28;20392;-79
2022/07/26 03:30:32;;;;;;;5.20;2.15;;;18.10;99.90;;;;;;5012385;28;20195;-77
2022/07/26 03:32:59;;;;;;;4.22;2.28;;;18.10;99.90;;;;;;5012489;28;20205;-77
2022/07/26 03:35:26;;;;;;;7.80;2.03;;;18.10;99.90;;;;;;5010839;28;20288;-77
2022/07/26 03:37:54;;;;;;;5.45;1.90;;;18.00;99.90;;;;;;5012020;28;20195;-77
2022/07/26 03:40:21;;;;;;;7.57;1.80;;;18.00;99.90;;;;;;5012041;28;20223;-79
2022/07/26 03:42:48;;;;;;;3.20;1.92;;;18.00;99.90;;;;;;5010580;28;20222;-79
2022/07/26 03:45:16;;;;;;;4.00;1.40;;;18.00;99.90;;;;;;5011439;28;20286;-77
2022/07/26 03:47:44;;;;;;;4.85;2.10;;;18.00;99.90;;;;;;5012053;28;20314;-79
2022/07/26 03:50:12;;;;;;;3.75;1.48;;;18.00;99.90;;;;;;5011295;28;20222;-78
2022/07/26 03:52:39;;;;;;;5.07;1.80;;;18.00;99.90;;;;;;5011652;28;20290;-79
2022/07/26 03:57:50;;;;;;;8.38;1.63;;;17.90;99.90;;;;;;5011487;28;20231;-78
2022/07/26 04:00:17;;;;;;;4.18;1.55;;;17.90;99.90;;;;;;5012119;28;20207;-79
2022/07/26 04:02:44;;;;;;;4.05;1.40;;;17.90;99.90;;;;;;5011081;28;20603;-78
2022/07/26 04:05:11;;;;;;;7.10;1.85;;;17.90;99.90;;;;;;5011052;28;20210;-79
2022/07/26 04:07:42;;;;;;;5.55;1.85;;;17.90;99.90;;;;;;5011817;28;20322;-78
2022/07/26 04:10:11;;;;;;;4.63;1.45;;;17.90;99.90;;;;;;5011062;28;20626;-78
2022/07/26 04:12:38;;;;;;;3.50;1.25;;;17.80;99.90;;;;;;5011901;28;20226;-77
2022/07/26 04:15:06;;;;;;;5.72;1.20;;;17.90;99.90;;;;;;5011105;28;20215;-76
2022/07/26 04:17:37;;;;;;;3.40;1.30;;;17.80;99.90;;;;;;5011253;28;20203;-77
2022/07/26 04:20:05;;;;;;;4.13;1.48;;;17.80;99.90;;;;;;5012057;28;20198;-75
2022/07/26 04:22:32;;;;;;;5.45;1.40;;;17.80;99.90;;;;;;5011734;28;20252;-75
2022/07/26 04:24:59;;;;;;;6.05;1.17;;;17.80;99.90;;;;;;5010164;28;20211;-76
2022/07/26 04:27:27;;;;;;;9.27;1.63;;;17.90;99.90;;;;;;5011589;28;20230;-74
2022/07/26 04:29:54;;;;;;;5.88;1.63;;;17.90;99.90;;;;;;5011754;28;20381;-76
2022/07/26 04:32:21;;;;;;;8.98;1.60;;;17.80;99.90;;;;;;5010722;28;20204;-78
2022/07/26 04:34:48;;;;;;;5.10;1.38;;;17.90;99.90;;;;;;5011743;28;20199;-78
2022/07/26 04:37:15;;;;;;;4.95;1.35;;;17.90;99.90;;;;;;5011772;28;20202;-80
2022/07/26 04:39:42;;;;;;;7.47;1.60;;;17.90;99.90;;;;;;5011432;28;20227;-79
2022/07/26 04:42:09;;;;;;;7.75;1.60;;;17.90;99.90;;;;;;5010977;28;20207;-75
2022/07/26 04:44:37;;;;;;;13.10;1.73;;;18.00;99.90;;;;;;5011807;28;20282;-77
2022/07/26 04:47:04;;;;;;;7.82;1.80;;;17.90;99.90;;;;;;5010860;28;20204;-76
2022/07/26 04:49:31;;;;;;;5.60;1.60;;;18.00;99.90;;;;;;5011466;28;20302;-77
2022/07/26 04:51:58;;;;;;;4.95;1.58;;;18.00;99.90;;;;;;5014504;28;20604;-77
2022/07/26 04:54:25;;;;;;;5.57;2.08;;;18.00;99.90;;;;;;5015217;28;20199;-77
2022/07/26 04:56:52;;;;;;;7.10;1.75;;;17.90;99.90;;;;;;5010032;28;20558;-77
2022/07/26 04:59:19;;;;;;;5.72;1.52;;;17.90;99.90;;;;;;4995090;28;20200;-76
2022/07/26 05:01:47;;;;;;;5.00;1.45;;;17.90;99.90;;;;;;4994975;28;20803;-75
2022/07/26 05:04:14;;;;;;;8.02;1.27;;;18.00;99.90;;;;;;4995443;28;20208;-76
2022/07/26 05:06:41;;;;;;;4.40;1.20;;;18.00;99.90;;;;;;5013226;28;20238;-76
2022/07/26 05:09:09;;;;;;;5.25;1.00;;;18.00;99.90;;;;;;5014716;28;20354;-77
2022/07/26 05:11:36;;;;;;;2.03;1.10;;;18.00;99.90;;;;;;5014679;28;20231;-77
2022/07/26 05:14:03;;;;;;;4.43;1.05;;;18.00;99.90;;;;;;5012987;28;20302;-77
2022/07/26 05:16:30;;;;;;;5.78;1.10;;;17.90;99.90;;;;;;5014408;28;20282;-75
2022/07/26 05:18:58;;;;;;;3.70;0.90;;;17.90;99.90;;;;;;5014537;28;20203;-77
2022/07/26 05:21:26;;;;;;;8.13;1.25;;;17.90;99.90;;;;;;5013593;28;20222;-76
2022/07/26 05:23:53;;;;;;;3.72;1.27;;;17.90;99.90;;;;;;5014669;28;20199;-77
2022/07/26 05:26:20;;;;;;;3.45;1.00;;;17.80;99.90;;;;;;5013910;28;20205;-77
2022/07/26 05:28:47;;;;;;;3.55;0.80;;;17.80;99.90;;;;;;5013733;28;20219;-76
2022/07/26 05:31:14;;;;;;;5.93;1.13;;;17.80;99.90;;;;;;5014195;28;20203;-77
2022/07/26 05:33:41;;;;;;;4.28;1.00;;;17.80;99.90;;;;;;5013207;28;20259;-77
2022/07/26 05:36:09;;;;;;;5.50;1.02;;;17.70;99.90;;;;;;5013490;28;20210;-75
2022/07/26 05:38:36;;;;;;;1.83;0.50;;;17.80;99.90;;;;;;5014376;28;20751;-78
2022/07/26 05:41:03;;;;;;;4.60;0.82;;;17.80;99.90;;;;;;5014077;28;20199;-78
2022/07/26 05:43:30;;;;;;;2.25;0.70;;;17.70;99.90;;;;;;5012669;28;20214;-78
2022/07/26 05:45:57;;;;;;;5.20;0.95;;;17.80;99.90;;;;;;5013552;28;20610;-77
2022/07/26 05:48:24;;;;;;;1.98;1.05;;;17.80;99.90;;;;;;5012390;28;20246;-76
2022/07/26 05:50:51;;;;;;;3.88;0.90;;;17.80;99.90;;;;;;5014218;28;20214;-76
2022/07/26 05:53:19;;;;;;;5.20;0.90;;;17.90;99.90;;;;;;5012910;28;20637;-79
2022/07/26 05:55:46;;;;;;;4.90;1.02;;;17.90;99.90;;;;;;5013101;28;20230;-78
2022/07/26 05:58:13;;;;;;;4.63;0.93;;;17.90;99.90;;;;;;5013811;28;20208;-80
2022/07/26 06:00:40;;;;;;;4.13;1.20;;;17.90;99.90;;;;;;5012443;28;20207;-76
2022/07/26 06:06:27;;;;;;;4.05;0.98;;;18.00;99.90;;;;;;5084153;27;20795;-77
2022/07/26 06:08:55;;;;;;;3.00;0.90;;;18.00;99.90;;;;;;5108443;28;20204;-76
2022/07/26 06:11:22;;;;;;;4.40;1.13;;;18.00;99.90;;;;;;5088410;28;20202;-77
2022/07/26 06:13:49;;;;;;;2.50;1.13;;;18.00;99.90;;;;;;5089110;28;20208;-76
2022/07/26 06:16:16;;;;;;;8.23;1.83;;;18.00;99.90;;;;;;5089222;28;20601;-77
2022/07/26 06:18:43;;;;;;;6.30;1.45;;;18.00;99.90;;;;;;5088249;28;20243;-75
2022/07/26 06:21:11;;;;;;;6.32;1.15;;;18.00;99.90;;;;;;5088916;28;20475;-79
2022/07/26 06:23:39;;;;;;;3.92;1.15;;;18.00;99.90;;;;;;5088316;28;20207;-79
2022/07/26 06:26:06;;;;;;;4.47;1.55;;;18.00;99.90;;;;;;5088094;28;20211;-78
2022/07/26 06:28:33;;;;;;;6.47;1.45;;;17.90;99.90;;;;;;5088913;28;20201;-76
2022/07/26 06:31:00;;;;;;;5.50;1.58;;;17.90;99.90;;;;;;5088447;28;20196;-79
2022/07/26 06:33:27;;;;;;;4.07;1.33;;;17.80;99.90;;;;;;5088354;28;20200;-77
2022/07/26 06:35:54;;;;;;;4.57;1.15;;;17.80;99.90;;;;;;5088561;28;20285;-77
2022/07/26 06:38:21;;;;;;;3.35;1.10;;;17.90;99.90;;;;;;5088148;28;20201;-78
2022/07/26 06:40:49;;;;;;;4.60;1.23;;;17.90;99.90;;;;;;5088875;28;20217;-78
2022/07/26 06:43:16;;;;;;;5.30;1.00;;;17.90;99.90;;;;;;5088387;28;20201;-77
2022/07/26 06:45:42;;;;;;;9.50;1.20;;;17.90;99.90;;;;;;5087576;28;20247;-77
2022/07/26 06:48:09;;;;;;;3.10;0.80;;;17.90;99.90;;;;;;5095018;28;20200;-77
2022/07/26 06:50:36;;;;;;;5.78;1.20;;;17.90;99.90;;;;;;5118942;28;20203;-78
2022/07/26 06:53:03;;;;;;;3.50;0.82;;;18.00;99.90;;;;;;5111511;28;20207;-77
2022/07/26 06:55:34;;;;;;;2.97;1.10;;;18.10;99.90;;;;;;5110147;28;20200;-78
2022/07/26 06:58:03;;;;;;;2.45;0.90;;;18.10;99.90;;;;;;5110248;28;20316;-79
2022/07/26 07:00:30;;;;;;;3.10;0.70;;;18.20;87.40;;;;;;5105103;28;20203;-78
2022/07/26 07:02:57;;;;;;;3.42;0.52;;;18.20;81.20;;;;;;5122766;28;20799;-79
2022/07/26 07:05:23;;;;;;;2.25;0.90;;;18.30;84.60;;;;;;5126959;28;20251;-79
2022/07/26 07:07:50;;;;;;;1.38;0.50;;;18.40;59.90;;;;;;5126776;28;20210;-78
2022/07/26 07:10:17;;;;;;;2.83;0.93;;;18.50;56.60;;;;;;5111034;28;20202;-79
2022/07/26 07:12:44;;;;;;;2.50;0.90;;;18.50;56.90;;;;;;5103912;28;20211;-78
2022/07/26 07:15:12;;;;;;;3.58;1.13;;;18.60;49.90;;;;;;5104239;28;20204;-77
2022/07/26 07:17:39;;;;;;;3.88;1.90;;;18.70;43.70;;;;;;5094154;28;20271;-80
2022/07/26 07:20:07;;;;;;;2.88;0.90;;;18.80;46.00;;;;;;5090899;28;20210;-81
2022/07/26 07:22:34;;;;;;;3.22;1.13;;;18.90;33.70;;;;;;5082081;28;20216;-78
2022/07/26 07:25:00;;;;;;;6.05;1.00;;;19.00;14.90;;;;;;5073770;28;20217;-79
2022/07/26 07:27:27;;;;;;;7.75;1.00;;;19.10;20.30;;;;;;5093340;28;20589;-81
2022/07/26 07:29:54;;;;;;;4.93;1.15;;;19.20;11.70;;;;;;5075152;28;20296;-78
2022/07/26 07:32:23;;;;;;;7.38;1.17;;;19.20;6.90;;;;;;5074545;28;20293;-79
2022/07/26 07:34:50;;;;;;;2.40;0.88;;;19.10;1.00;;;;;;5073798;28;20205;-79
2022/07/26 07:37:17;;;;;;;3.95;1.13;;;19.20;1.00;;;;;;5074345;28;20197;-79
2022/07/26 07:39:44;;;;;;;3.00;1.00;;;19.10;4.30;;;;;;5073988;28;20225;-77
2022/07/26 07:42:11;;;;;;;5.78;1.20;;;19.20;1.00;;;;;;5090929;28;20211;-77
2022/07/26 07:44:40;;;;;;;2.78;0.82;;;19.40;1.00;;;;;;5093679;28;20230;-77
2022/07/26 07:47:07;;;;;;;5.55;1.00;;;19.50;1.00;;;;;;5093910;28;20235;-80
2022/07/26 07:49:36;;;;;;;3.53;1.10;;;19.60;1.00;;;;;;5080559;28;20232;-78
2022/07/26 07:52:04;;;;;;;1.58;0.70;;;19.60;1.00;;;;;;5094397;28;20211;-78
2022/07/26 07:54:31;;;;;;;5.30;1.10;;;19.70;1.00;;;;;;5077680;28;20291;-79
2022/07/26 07:56:58;;;;;;;4.97;1.15;;;19.80;1.00;;;;;;5071960;28;20198;-78
2022/07/26 07:59:25;;;;;;;4.82;1.10;;;20.20;1.00;;;;;;5093494;28;20235;-80
2022/07/26 08:01:54;;;;;;;2.70;1.20;;;20.50;1.00;;;;;;5088813;28;20208;-78
2022/07/26 08:04:21;;;;;;;6.07;1.10;;;20.70;1.00;;;;;;5093168;28;20238;-79
2022/07/26 08:06:50;;;;;;;5.68;1.40;;;20.90;1.00;;;;;;5084587;28;20196;-79
2022/07/26 08:09:17;;;;;;;5.25;1.40;;;21.10;1.00;;;;;;5092038;28;20233;-79
2022/07/26 08:11:43;;;;;;;2.65;1.17;;;20.90;1.00;;;;;;5093837;28;20200;-80
2022/07/26 08:14:10;;;;;;;5.38;1.25;;;20.90;1.00;;;;;;5084619;28;20219;-80
2022/07/26 08:16:37;;;;;;;6.07;1.48;;;20.90;1.00;;;;;;5073577;28;20208;-79
2022/07/26 08:19:04;;;;;;;5.22;1.20;;;20.90;1.00;;;;;;5072876;28;20250;-79
2022/07/26 08:21:31;;;;;;;6.05;1.40;;;21.00;1.00;;;;;;5073686;28;20185;-79
2022/07/26 08:23:59;;;;;;;4.85;1.00;;;21.40;1.00;;;;;;5072754;28;20197;-80
2022/07/26 08:26:26;;;;;;;4.35;1.30;;;21.40;1.00;;;;;;5073098;28;20229;-78
2022/07/26 08:28:53;;;;;;;3.53;1.15;;;21.30;99.90;;;;;;5072052;28;20207;-80
2022/07/26 08:31:20;;;;;;;4.82;1.50;;;21.60;3.40;;;;;;5079189;28;20501;-81
2022/07/26 08:33:47;;;;;;;3.95;1.08;;;21.90;1.00;;;;;;5074157;28;20204;-79
2022/07/26 08:36:15;;;;;;;4.53;1.00;;;22.30;1.00;;;;;;5075374;28;20216;-78
2022/07/26 08:38:42;;;;;;;2.33;0.98;;;22.20;1.00;;;;;;5082157;28;20288;-80
2022/07/26 08:41:10;;;;;;;3.97;1.10;;;22.00;1.00;;;;;;5096656;28;20200;-81
2022/07/26 08:43:37;;;;;;;4.30;1.10;;;21.90;1.00;;;;;;5095009;28;20200;-81
2022/07/26 08:46:04;;;;;;;2.33;0.85;;;22.00;1.00;;;;;;5093667;28;20224;-81
2022/07/26 08:48:31;;;;;;;3.22;0.95;;;22.00;1.00;;;;;;5077274;28;20211;-82
2022/07/26 08:50:59;;;;;;;7.55;1.30;;;22.00;1.00;;;;;;5084497;28;20201;-80
2022/07/26 08:53:29;;;;;;;3.70;1.35;;;22.10;1.00;;;;;;5085800;28;20220;-80
2022/07/26 08:55:57;;;;;;;2.53;1.00;;;22.00;1.00;;;;;;5085717;28;20200;-78
2022/07/26 08:58:25;;;;;;;3.08;1.02;;;22.10;99.90;;;;;;5085285;28;20890;-81
2022/07/26 09:01:04;;;;;;;7.20;1.45;;;21.90;99.90;;;;;;5084815;28;20204;-79
2022/07/26 09:03:31;;;;;;;7.40;1.90;;;21.90;99.90;;;;;;5091777;28;20200;-80
2022/07/26 09:06:11;;;;;;;4.05;1.33;;;21.70;99.90;;;;;;5100645;28;20277;-82
2022/07/26 09:08:38;;;;;;;4.28;1.13;;;21.60;99.90;;;;;;5100763;28;20218;-80
2022/07/26 09:11:30;;;;;;;6.10;1.25;;;21.50;99.90;;;;;;5105831;28;20268;-81
2022/07/26 09:13:59;;;;;;;7.15;1.38;;;21.40;99.90;;;;;;5100873;28;20288;-80
2022/07/26 09:16:27;;;;;;;4.72;1.15;;;21.20;99.90;;;;;;5084374;28;20194;-79
2022/07/26 09:18:54;;;;;;;5.85;1.45;;;20.90;99.90;;;;;;5079745;28;20215;-79
2022/07/26 09:21:29;;;;;;;4.90;1.40;;;20.90;99.90;;;;;;5087881;28;20201;-80
2022/07/26 09:23:56;;;;;;;7.20;1.77;;;20.70;99.90;;;;;;5077042;28;20205;-77
2022/07/26 09:26:24;;;;;;;3.45;1.15;;;20.90;99.90;;;;;;5072438;28;20715;-78
2022/07/26 09:29:11;;;;;;;5.45;1.38;;;20.90;99.90;;;;;;5072491;28;20586;-77
2022/07/26 09:31:39;;;;;;;7.97;1.67;;;20.90;99.90;;;;;;5072352;28;20229;-79
2022/07/26 09:34:07;;;;;;;8.13;2.13;;;21.10;99.90;;;;;;5072452;28;20203;-79
2022/07/26 09:36:49;;;;;;;8.48;1.92;;;21.10;99.90;;;;;;5073139;28;20197;-80
2022/07/26 09:39:16;;;;;;;5.10;1.50;;;21.30;99.90;;;;;;5072562;28;20308;-78
2022/07/26 09:41:43;;;;;;;8.10;1.75;;;21.30;99.90;;;;;;5072861;28;20211;-79
2022/07/26 09:44:22;;;;;;;5.30;1.52;;;21.30;99.90;;;;;;5073116;28;20581;-80
2022/07/26 09:46:52;;;;;;;8.70;1.98;;;21.20;99.90;;;;;;5089330;28;20219;-82
2022/07/26 09:49:21;;;;;;;6.03;1.90;;;21.00;99.90;;;;;;5092136;28;20189;-80
2022/07/26 09:51:50;;;;;;;2.92;1.40;;;21.00;99.80;;;;;;5075150;28;20201;-78
2022/07/26 09:54:19;;;;;;;4.10;1.42;;;20.90;99.90;;;;;;5072393;28;20213;-79
2022/07/26 09:56:49;;;;;;;5.43;1.80;;;21.10;99.90;;;;;;5071465;28;20488;-80
2022/07/26 09:59:17;;;;;;;4.72;1.70;;;21.20;96.60;;;;;;5071842;28;20675;-79
2022/07/26 10:01:46;;;;;;;5.15;1.63;;;21.40;95.40;;;;;;5071055;28;20643;-79
2022/07/26 10:04:13;;;;;;;8.82;1.77;;;21.60;89.70;;;;;;5071954;28;20358;-78
2022/07/26 10:06:41;;;;;;;5.05;1.60;;;21.90;78.90;;;;;;5072176;28;20213;-81
2022/07/26 10:09:08;;;;;;;5.72;2.00;;;22.20;74.60;;;;;;5070979;28;20205;-79
2022/07/26 10:11:41;;;;;;;5.90;1.80;;;22.10;66.70;;;;;;5071841;28;20201;-79
2022/07/26 10:14:45;;;;;;;6.85;1.85;;;22.20;60.20;;;;;;5072326;28;20189;-81
2022/07/26 10:17:47;;;;;;;6.10;1.75;;;22.20;57.40;;;;;;5071023;28;20193;-80
2022/07/26 10:20:39;;;;;;;7.43;1.80;;;22.30;58.40;;;;;;5072216;28;20212;-76
2022/07/26 10:23:33;;;;;;;6.82;1.55;;;22.30;49.30;;;;;;5056870;28;20205;-79
2022/07/26 10:26:00;;;;;;;10.63;1.85;;;22.30;52.60;;;;;;5071680;28;20224;-80
2022/07/26 10:28:29;;;;;;;7.05;1.85;;;22.50;50.90;;;;;;5072113;28;20204;-80
2022/07/26 10:31:24;;;;;;;7.25;2.05;;;22.60;48.40;;;;;;5070457;28;20209;-79
2022/07/26 10:33:54;;;;;;;5.38;1.50;;;22.70;44.20;;;;;;5058380;28;20201;-79
2022/07/26 10:36:26;;;;;;;6.50;1.63;;;22.80;40.90;;;;;;5071513;28;20198;-79
2022/07/26 10:39:10;;;;;;;10.07;1.95;;;22.70;40.50;;;;;;5070770;28;20224;-78
2022/07/26 10:41:40;;;;;;;5.50;1.65;;;22.50;43.70;;;;;;5071444;28;20208;-79
2022/07/26 10:44:26;;;;;;;7.78;2.05;;;22.30;41.80;;;;;;5070810;28;20201;-80
2022/07/26 10:47:10;;;;;;;5.88;2.10;;;22.20;41.30;;;;;;5071928;28;20621;-80
2022/07/26 10:49:40;;;;;;;4.35;1.58;;;22.50;43.00;;;;;;5071255;28;20213;-80
2022/07/26 10:52:17;;;;;;;10.55;2.17;;;22.80;41.60;;;;;;5073429;28;20216;-79
2022/07/26 10:55:11;;;;;;;10.75;2.20;;;22.90;38.00;;;;;;5075331;28;20212;-80
2022/07/26 10:57:39;;;;;;;8.15;1.80;;;22.90;34.50;;;;;;5050400;28;20604;-79
2022/07/26 11:00:22;;;;;;;5.68;1.63;;;23.00;35.00;;;;;;5075141;28;20745;-79
2022/07/26 11:02:55;;;;;;;6.47;1.95;;;23.00;34.60;;;;;;5073496;28;20805;-80
2022/07/26 11:05:27;;;;;;;3.38;1.70;;;23.20;35.40;;;;;;5074111;28;20275;-79
2022/07/26 11:08:00;;;;;;;10.95;2.15;;;23.30;49.60;;;;;;5075373;28;20232;-78
2022/07/26 11:10:30;;;;;;;8.98;2.80;;;23.60;35.20;;;;;;5075293;28;20198;-78
2022/07/26 11:13:16;;;;;;;5.63;1.70;;;23.80;35.50;;;;;;5074062;28;20217;-79
2022/07/26 11:15:46;;;;;;;5.82;1.75;;;24.20;32.60;;;;;;5074551;28;20193;-79
2022/07/26 11:18:20;;;;;;;3.58;1.60;;;24.30;33.00;;;;;;5074777;28;20197;-78
2022/07/26 11:20:50;;;;;;;6.10;1.65;;;24.60;30.40;;;;;;5074336;28;20225;-79
2022/07/26 11:23:30;;;;;;;6.95;1.40;;;24.50;28.50;;;;;;5074816;28;20280;-78
2022/07/26 11:26:06;;;;;;;3.78;1.40;;;24.30;26.60;;;;;;5074420;28;20303;-80
2022/07/26 11:28:55;;;;;;;4.93;1.50;;;24.20;25.40;;;;;;5074635;28;20185;-79
2022/07/26 11:31:28;;;;;;;7.47;1.48;;;24.40;26.50;;;;;;5074631;28;20193;-79
2022/07/26 11:33:56;;;;;;;3.50;1.42;;;24.60;26.50;;;;;;5073895;28;20212;-77
2022/07/26 11:36:39;;;;;;;6.10;1.58;;;24.70;24.80;;;;;;5074469;28;20200;-80
2022/07/26 11:39:08;;;;;;;4.88;1.50;;;24.70;25.90;;;;;;5074508;28;20248;-78
2022/07/26 11:41:36;;;;;;;4.63;1.08;;;24.80;25.30;;;;;;5073934;28;20201;-79
2022/07/26 11:44:04;;;;;;;4.55;1.70;;;25.00;24.40;;;;;;5073754;28;20209;-79
2022/07/26 11:46:34;;;;;;;2.85;1.00;;;25.10;24.60;;;;;;5073762;28;20221;-78
2022/07/26 11:49:01;;;;;;;4.40;1.45;;;25.00;23.90;;;;;;5073498;28;20197;-80
2022/07/26 11:51:28;;;;;;;3.13;1.13;;;25.20;23.50;;;;;;5073904;28;20585;-78
2022/07/26 11:54:00;;;;;;;3.17;1.30;;;25.10;22.40;;;;;;5073869;28;20194;-79
2022/07/26 11:56:30;;;;;;;5.82;1.10;;;25.00;21.20;;;;;;5073797;28;20536;-78
2022/07/26 11:58:57;;;;;;;2.22;0.98;;;24.70;18.60;;;;;;5074300;28;20194;-76
2022/07/26 12:01:26;;;;;;;5.00;1.58;;;24.50;18.50;;;;;;5073520;28;20202;-79
2022/07/26 12:03:54;;;;;;;5.72;1.25;;;24.40;16.90;;;;;;5073549;28;20239;-78
2022/07/26 12:06:23;;;;;;;5.13;1.33;;;24.20;15.30;;;;;;5073631;28;20284;-77
2022/07/26 12:08:51;;;;;;;3.72;1.50;;;24.00;14.60;;;;;;5073074;28;20194;-78
2022/07/26 12:11:21;;;;;;;5.32;1.40;;;24.10;15.60;;;;;;5073526;28;20586;-77
2022/07/26 12:13:50;;;;;;;3.80;1.25;;;24.20;15.00;;;;;;5073852;28;20209;-77
2022/07/26 12:16:35;;;;;;;3.92;1.40;;;24.40;15.50;;;;;;5072772;28;20197;-78
2022/07/26 12:19:02;;;;;;;3.63;1.10;;;24.40;14.10;;;;;;5073702;28;20185;-78
2022/07/26 12:21:44;;;;;;;3.67;1.50;;;24.50;14.90;;;;;;5072867;28;20193;-77
2022/07/26 12:24:12;;;;;;;3.05;1.20;;;24.70;15.00;;;;;;5072773;28;20198;-79
2022/07/26 12:26:40;;;;;;;5.00;1.23;;;24.90;14.80;;;;;;5073569;28;20217;-77
2022/07/26 12:29:26;;;;;;;3.15;1.15;;;25.00;14.80;;;;;;5073166;28;20225;-78
2022/07/26 12:32:04;;;;;;;4.50;1.33;;;25.00;14.50;;;;;;5073153;28;20207;-77
2022/07/26 12:34:31;;;;;;;5.50;1.98;;;24.90;13.90;;;;;;5073372;28;20215;-78
2022/07/26 12:37:22;;;;;;;4.90;1.20;;;24.60;11.70;;;;;;5072260;28;20201;-79
2022/07/26 12:40:05;;;;;;;8.02;1.30;;;24.30;10.60;;;;;;5057930;28;20535;-78
2022/07/26 12:42:35;;;;;;;5.97;1.23;;;24.00;9.00;;;;;;5073266;28;20197;-80
2022/07/26 12:45:03;;;;;;;2.53;1.30;;;23.70;7.30;;;;;;5072312;28;20201;-79
2022/07/26 12:47:30;;;;;;;4.47;1.50;;;23.70;7.40;;;;;;5072855;28;20275;-79
2022/07/26 12:49:57;;;;;;;7.32;1.30;;;23.70;7.60;;;;;;5072805;28;20300;-78
2022/07/26 12:52:24;;;;;;;5.60;1.73;;;23.80;7.30;;;;;;5077910;28;20584;-79
2022/07/26 12:54:53;;;;;;;4.18;1.30;;;23.60;7.70;;;;;;5091961;28;20228;-78
2022/07/26 12:57:20;;;;;;;2.95;1.13;;;23.60;7.30;;;;;;5092173;28;20197;-78
2022/07/26 12:59:49;;;;;;;7.63;1.30;;;23.60;7.60;;;;;;5093020;28;20201;-78
2022/07/26 13:02:18;;;;;;;4.53;1.55;;;23.70;6.80;;;;;;5093084;28;20288;-79
2022/07/26 13:04:45;;;;;;;6.75;1.52;;;23.60;6.70;;;;;;5088066;28;20564;-78
2022/07/26 13:07:12;;;;;;;3.10;1.30;;;23.40;18.80;;;;;;5092563;28;20220;-79